sensor_id;sensor_type;location;lat;lon;timestamp;P1;durP1;ratioP1;P2;durP2;ratioP2
17235;SDS011;8734;59.272;17.780;2022-10-31T00:01:10;5.67;;;2.83;;
17235;SDS011;8734;59.272;17.780;2022-10-31T00:03:39;5.47;;;2.67;;
17235;SDS011;8734;59.272;17.780;2022-10-31T00:06:07;5.10;;;2.80;;
17235;SDS011;8734;59.272;17.780;2022-10-31T00:08:35;6.43;;;3.40;;
17235;SDS011;8734;59.272;17.780;2022-10-31T00:11:07;6.13;;;3.20;;
17235;SDS011;8734;59.272;17.780;2022-10-31T00:13:38;9.67;;;3.10;;
17235;SDS011;8734;59.272;17.780;2022-10-31T00:16:12;10.83;;;2.70;;
17235;SDS011;8734;59.272;17.780;2022-10-31T00:18:42;6.33;;;2.83;;
17235;SDS011;8734;59.272;17.780;2022-10-31T00:21:11;8.53;;;3.07;;
17235;SDS011;8734;59.272;17.780;2022-10-31T00:23:39;6.47;;;2.97;;
17235;SDS011;8734;59.272;17.780;2022-10-31T00:26:07;11.73;;;3.30;;
17235;SDS011;8734;59.272;17.780;2022-10-31T00:28:37;8.47;;;2.87;;
17235;SDS011;8734;59.272;17.780;2022-10-31T00:31:06;13.83;;;3.83;;
17235;SDS011;8734;59.272;17.780;2022-10-31T00:33:36;7.03;;;3.27;;
17235;SDS011;8734;59.272;17.780;2022-10-31T00:36:06;6.50;;;3.17;;
17235;SDS011;8734;59.272;17.780;2022-10-31T00:38:35;8.17;;;3.17;;
17235;SDS011;8734;59.272;17.780;2022-10-31T00:41:03;6.30;;;2.97;;
17235;SDS011;8734;59.272;17.780;2022-10-31T00:43:33;9.33;;;3.43;;
17235;SDS011;8734;59.272;17.780;2022-10-31T00:46:02;7.93;;;2.93;;
17235;SDS011;8734;59.272;17.780;2022-10-31T00:48:31;11.67;;;3.50;;
17235;SDS011;8734;59.272;17.780;2022-10-31T00:50:59;14.23;;;3.53;;
17235;SDS011;8734;59.272;17.780;2022-10-31T00:53:27;6.13;;;3.30;;
17235;SDS011;8734;59.272;17.780;2022-10-31T00:55:56;7.97;;;3.10;;
17235;SDS011;8734;59.272;17.780;2022-10-31T00:58:24;6.50;;;2.90;;
17235;SDS011;8734;59.272;17.780;2022-10-31T01:00:53;7.83;;;3.53;;
17235;SDS011;8734;59.272;17.780;2022-10-31T01:03:23;7.07;;;3.30;;
17235;SDS011;8734;59.272;17.780;2022-10-31T01:05:57;6.73;;;2.97;;
17235;SDS011;8734;59.272;17.780;2022-10-31T01:08:27;9.87;;;3.40;;
17235;SDS011;8734;59.272;17.780;2022-10-31T01:10:59;5.53;;;3.30;;
17235;SDS011;8734;59.272;17.780;2022-10-31T01:13:29;10.77;;;3.90;;
17235;SDS011;8734;59.272;17.780;2022-10-31T01:15:59;5.73;;;3.53;;
17235;SDS011;8734;59.272;17.780;2022-10-31T01:18:27;12.60;;;4.07;;
17235;SDS011;8734;59.272;17.780;2022-10-31T01:20:57;8.10;;;3.87;;
17235;SDS011;8734;59.272;17.780;2022-10-31T01:23:26;13.33;;;4.13;;
17235;SDS011;8734;59.272;17.780;2022-10-31T01:25:59;15.27;;;4.03;;
17235;SDS011;8734;59.272;17.780;2022-10-31T01:28:28;15.93;;;3.50;;
17235;SDS011;8734;59.272;17.780;2022-10-31T01:31:01;11.47;;;4.07;;
17235;SDS011;8734;59.272;17.780;2022-10-31T01:33:30;7.80;;;3.50;;
17235;SDS011;8734;59.272;17.780;2022-10-31T01:35:58;8.70;;;3.80;;
17235;SDS011;8734;59.272;17.780;2022-10-31T01:38:26;12.10;;;3.87;;
17235;SDS011;8734;59.272;17.780;2022-10-31T01:40:55;11.50;;;3.90;;
17235;SDS011;8734;59.272;17.780;2022-10-31T01:43:23;8.83;;;3.57;;
17235;SDS011;8734;59.272;17.780;2022-10-31T01:45:52;8.33;;;3.67;;
17235;SDS011;8734;59.272;17.780;2022-10-31T01:48:24;11.83;;;3.70;;
17235;SDS011;8734;59.272;17.780;2022-10-31T01:50:57;10.60;;;3.60;;
17235;SDS011;8734;59.272;17.780;2022-10-31T01:53:26;7.20;;;3.23;;
17235;SDS011;8734;59.272;17.780;2022-10-31T01:55:55;8.57;;;3.63;;
17235;SDS011;8734;59.272;17.780;2022-10-31T01:58:24;11.00;;;4.07;;
17235;SDS011;8734;59.272;17.780;2022-10-31T02:00:56;15.43;;;3.60;;
17235;SDS011;8734;59.272;17.780;2022-10-31T02:03:34;7.97;;;3.60;;
17235;SDS011;8734;59.272;17.780;2022-10-31T02:06:03;11.13;;;3.40;;
17235;SDS011;8734;59.272;17.780;2022-10-31T02:08:38;13.10;;;3.57;;
17235;SDS011;8734;59.272;17.780;2022-10-31T02:11:07;18.10;;;3.97;;
17235;SDS011;8734;59.272;17.780;2022-10-31T02:13:36;8.77;;;3.40;;
17235;SDS011;8734;59.272;17.780;2022-10-31T02:16:05;8.03;;;3.90;;
17235;SDS011;8734;59.272;17.780;2022-10-31T02:18:35;6.90;;;3.43;;
17235;SDS011;8734;59.272;17.780;2022-10-31T02:21:06;15.57;;;4.30;;
17235;SDS011;8734;59.272;17.780;2022-10-31T02:23:46;8.73;;;3.20;;
17235;SDS011;8734;59.272;17.780;2022-10-31T02:26:39;14.73;;;3.60;;
17235;SDS011;8734;59.272;17.780;2022-10-31T02:32:18;12.80;;;3.90;;
17235;SDS011;8734;59.272;17.780;2022-10-31T02:34:54;13.57;;;3.90;;
17235;SDS011;8734;59.272;17.780;2022-10-31T02:37:28;14.53;;;3.77;;
17235;SDS011;8734;59.272;17.780;2022-10-31T02:40:05;13.83;;;4.20;;
17235;SDS011;8734;59.272;17.780;2022-10-31T02:42:43;10.60;;;4.40;;
17235;SDS011;8734;59.272;17.780;2022-10-31T02:45:20;12.80;;;3.47;;
17235;SDS011;8734;59.272;17.780;2022-10-31T02:47:55;10.00;;;3.50;;
17235;SDS011;8734;59.272;17.780;2022-10-31T02:50:28;16.23;;;3.73;;
17235;SDS011;8734;59.272;17.780;2022-10-31T02:53:01;12.53;;;3.93;;
17235;SDS011;8734;59.272;17.780;2022-10-31T02:55:42;5.33;;;3.10;;
17235;SDS011;8734;59.272;17.780;2022-10-31T02:58:17;12.17;;;3.80;;
17235;SDS011;8734;59.272;17.780;2022-10-31T03:00:51;12.97;;;4.07;;
17235;SDS011;8734;59.272;17.780;2022-10-31T03:03:34;23.03;;;4.13;;
17235;SDS011;8734;59.272;17.780;2022-10-31T03:06:08;15.77;;;4.53;;
17235;SDS011;8734;59.272;17.780;2022-10-31T03:08:43;12.87;;;3.90;;
17235;SDS011;8734;59.272;17.780;2022-10-31T03:11:16;9.17;;;3.87;;
17235;SDS011;8734;59.272;17.780;2022-10-31T03:13:50;20.10;;;4.87;;
17235;SDS011;8734;59.272;17.780;2022-10-31T03:16:22;25.50;;;4.20;;
17235;SDS011;8734;59.272;17.780;2022-10-31T03:18:59;15.43;;;4.00;;
17235;SDS011;8734;59.272;17.780;2022-10-31T03:21:32;16.80;;;4.03;;
17235;SDS011;8734;59.272;17.780;2022-10-31T03:24:04;10.63;;;4.23;;
17235;SDS011;8734;59.272;17.780;2022-10-31T03:26:34;14.80;;;4.43;;
17235;SDS011;8734;59.272;17.780;2022-10-31T03:29:06;17.83;;;4.13;;
17235;SDS011;8734;59.272;17.780;2022-10-31T03:31:39;15.87;;;4.43;;
17235;SDS011;8734;59.272;17.780;2022-10-31T03:34:13;15.00;;;4.23;;
17235;SDS011;8734;59.272;17.780;2022-10-31T03:36:44;17.87;;;5.37;;
17235;SDS011;8734;59.272;17.780;2022-10-31T03:39:17;13.13;;;4.73;;
17235;SDS011;8734;59.272;17.780;2022-10-31T03:41:49;22.50;;;4.77;;
17235;SDS011;8734;59.272;17.780;2022-10-31T03:44:22;19.93;;;4.97;;
17235;SDS011;8734;59.272;17.780;2022-10-31T03:46:54;14.40;;;4.90;;
17235;SDS011;8734;59.272;17.780;2022-10-31T03:49:24;17.53;;;4.53;;
17235;SDS011;8734;59.272;17.780;2022-10-31T03:51:54;13.13;;;4.60;;
17235;SDS011;8734;59.272;17.780;2022-10-31T03:54:27;19.07;;;5.13;;
17235;SDS011;8734;59.272;17.780;2022-10-31T03:57:03;14.00;;;4.70;;
17235;SDS011;8734;59.272;17.780;2022-10-31T03:59:36;16.60;;;4.97;;
17235;SDS011;8734;59.272;17.780;2022-10-31T04:02:10;25.90;;;5.00;;
17235;SDS011;8734;59.272;17.780;2022-10-31T04:04:43;26.60;;;5.50;;
17235;SDS011;8734;59.272;17.780;2022-10-31T04:07:13;17.87;;;5.20;;
17235;SDS011;8734;59.272;17.780;2022-10-31T04:09:44;30.53;;;5.73;;
17235;SDS011;8734;59.272;17.780;2022-10-31T04:12:15;18.10;;;4.93;;
17235;SDS011;8734;59.272;17.780;2022-10-31T04:14:45;16.27;;;4.83;;
17235;SDS011;8734;59.272;17.780;2022-10-31T04:17:17;18.47;;;5.40;;
17235;SDS011;8734;59.272;17.780;2022-10-31T04:19:50;20.43;;;5.13;;
17235;SDS011;8734;59.272;17.780;2022-10-31T04:22:19;18.70;;;5.13;;
17235;SDS011;8734;59.272;17.780;2022-10-31T04:24:47;22.27;;;5.50;;
17235;SDS011;8734;59.272;17.780;2022-10-31T04:27:15;22.23;;;6.17;;
17235;SDS011;8734;59.272;17.780;2022-10-31T04:29:43;18.77;;;5.20;;
17235;SDS011;8734;59.272;17.780;2022-10-31T04:32:16;27.03;;;5.90;;
17235;SDS011;8734;59.272;17.780;2022-10-31T04:34:45;16.97;;;3.97;;
17235;SDS011;8734;59.272;17.780;2022-10-31T04:37:14;24.17;;;5.67;;
17235;SDS011;8734;59.272;17.780;2022-10-31T04:39:43;28.53;;;6.43;;
17235;SDS011;8734;59.272;17.780;2022-10-31T04:42:11;27.20;;;6.90;;
17235;SDS011;8734;59.272;17.780;2022-10-31T04:44:39;40.17;;;6.80;;
17235;SDS011;8734;59.272;17.780;2022-10-31T04:47:07;33.53;;;4.97;;
17235;SDS011;8734;59.272;17.780;2022-10-31T04:49:35;56.47;;;7.70;;
17235;SDS011;8734;59.272;17.780;2022-10-31T04:52:03;57.60;;;7.07;;
17235;SDS011;8734;59.272;17.780;2022-10-31T04:54:33;73.57;;;6.60;;
17235;SDS011;8734;59.272;17.780;2022-10-31T04:57:02;84.40;;;6.87;;
17235;SDS011;8734;59.272;17.780;2022-10-31T04:59:30;68.20;;;6.70;;
17235;SDS011;8734;59.272;17.780;2022-10-31T05:01:58;92.43;;;6.90;;
17235;SDS011;8734;59.272;17.780;2022-10-31T05:04:27;136.17;;;7.20;;
17235;SDS011;8734;59.272;17.780;2022-10-31T05:06:55;73.03;;;6.10;;
17235;SDS011;8734;59.272;17.780;2022-10-31T05:09:23;99.90;;;7.43;;
17235;SDS011;8734;59.272;17.780;2022-10-31T05:11:53;65.03;;;5.63;;
17235;SDS011;8734;59.272;17.780;2022-10-31T05:14:21;72.03;;;6.80;;
17235;SDS011;8734;59.272;17.780;2022-10-31T05:16:49;85.80;;;7.23;;
17235;SDS011;8734;59.272;17.780;2022-10-31T05:19:18;69.97;;;6.33;;
17235;SDS011;8734;59.272;17.780;2022-10-31T05:21:46;61.90;;;6.20;;
17235;SDS011;8734;59.272;17.780;2022-10-31T05:24:15;48.33;;;4.87;;
17235;SDS011;8734;59.272;17.780;2022-10-31T05:26:43;43.53;;;6.23;;
17235;SDS011;8734;59.272;17.780;2022-10-31T05:29:13;36.10;;;6.30;;
17235;SDS011;8734;59.272;17.780;2022-10-31T05:31:41;49.97;;;6.00;;
17235;SDS011;8734;59.272;17.780;2022-10-31T05:34:10;74.80;;;6.30;;
17235;SDS011;8734;59.272;17.780;2022-10-31T05:36:38;65.23;;;5.97;;
17235;SDS011;8734;59.272;17.780;2022-10-31T05:39:06;30.47;;;5.83;;
17235;SDS011;8734;59.272;17.780;2022-10-31T05:41:34;46.20;;;6.33;;
17235;SDS011;8734;59.272;17.780;2022-10-31T05:44:02;71.07;;;7.53;;
17235;SDS011;8734;59.272;17.780;2022-10-31T05:46:32;101.40;;;7.30;;
17235;SDS011;8734;59.272;17.780;2022-10-31T05:49:01;111.40;;;7.47;;
17235;SDS011;8734;59.272;17.780;2022-10-31T05:51:29;137.63;;;8.30;;
17235;SDS011;8734;59.272;17.780;2022-10-31T05:53:57;111.63;;;9.00;;
17235;SDS011;8734;59.272;17.780;2022-10-31T05:56:26;108.73;;;9.90;;
17235;SDS011;8734;59.272;17.780;2022-10-31T05:58:54;115.17;;;9.90;;
17235;SDS011;8734;59.272;17.780;2022-10-31T06:01:22;100.97;;;9.40;;
17235;SDS011;8734;59.272;17.780;2022-10-31T06:03:53;171.23;;;11.70;;
17235;SDS011;8734;59.272;17.780;2022-10-31T06:06:21;138.00;;;12.03;;
17235;SDS011;8734;59.272;17.780;2022-10-31T06:08:49;126.90;;;11.87;;
17235;SDS011;8734;59.272;17.780;2022-10-31T06:11:18;148.77;;;14.03;;
17235;SDS011;8734;59.272;17.780;2022-10-31T06:13:46;110.93;;;13.67;;
17235;SDS011;8734;59.272;17.780;2022-10-31T06:16:14;94.07;;;11.10;;
17235;SDS011;8734;59.272;17.780;2022-10-31T06:18:43;132.70;;;10.63;;
17235;SDS011;8734;59.272;17.780;2022-10-31T06:21:12;102.07;;;9.80;;
17235;SDS011;8734;59.272;17.780;2022-10-31T06:23:44;123.20;;;9.87;;
17235;SDS011;8734;59.272;17.780;2022-10-31T06:26:13;68.43;;;9.73;;
17235;SDS011;8734;59.272;17.780;2022-10-31T06:28:41;90.10;;;9.43;;
17235;SDS011;8734;59.272;17.780;2022-10-31T06:31:09;97.80;;;9.50;;
17235;SDS011;8734;59.272;17.780;2022-10-31T06:33:37;63.87;;;8.20;;
17235;SDS011;8734;59.272;17.780;2022-10-31T06:36:08;50.67;;;8.53;;
17235;SDS011;8734;59.272;17.780;2022-10-31T06:38:38;76.17;;;9.37;;
17235;SDS011;8734;59.272;17.780;2022-10-31T06:41:06;70.90;;;8.27;;
17235;SDS011;8734;59.272;17.780;2022-10-31T06:43:34;55.20;;;8.93;;
17235;SDS011;8734;59.272;17.780;2022-10-31T06:46:03;73.70;;;8.83;;
17235;SDS011;8734;59.272;17.780;2022-10-31T06:48:32;71.57;;;9.00;;
17235;SDS011;8734;59.272;17.780;2022-10-31T06:51:01;58.73;;;8.40;;
17235;SDS011;8734;59.272;17.780;2022-10-31T06:53:30;61.07;;;8.73;;
17235;SDS011;8734;59.272;17.780;2022-10-31T06:56:00;57.33;;;8.90;;
17235;SDS011;8734;59.272;17.780;2022-10-31T06:58:28;73.20;;;9.67;;
17235;SDS011;8734;59.272;17.780;2022-10-31T07:00:58;65.63;;;9.30;;
17235;SDS011;8734;59.272;17.780;2022-10-31T07:03:27;61.60;;;9.57;;
17235;SDS011;8734;59.272;17.780;2022-10-31T07:05:55;44.37;;;8.47;;
17235;SDS011;8734;59.272;17.780;2022-10-31T07:08:24;49.90;;;9.73;;
17235;SDS011;8734;59.272;17.780;2022-10-31T07:10:53;41.90;;;9.27;;
17235;SDS011;8734;59.272;17.780;2022-10-31T07:13:24;55.67;;;11.43;;
17235;SDS011;8734;59.272;17.780;2022-10-31T07:15:53;44.63;;;11.10;;
17235;SDS011;8734;59.272;17.780;2022-10-31T07:18:22;55.73;;;11.43;;
17235;SDS011;8734;59.272;17.780;2022-10-31T07:20:51;50.33;;;10.40;;
17235;SDS011;8734;59.272;17.780;2022-10-31T07:23:19;61.10;;;11.60;;
17235;SDS011;8734;59.272;17.780;2022-10-31T07:25:48;56.83;;;11.77;;
17235;SDS011;8734;59.272;17.780;2022-10-31T07:28:16;48.27;;;11.67;;
17235;SDS011;8734;59.272;17.780;2022-10-31T07:30:48;65.77;;;13.47;;
17235;SDS011;8734;59.272;17.780;2022-10-31T07:33:17;70.03;;;13.33;;
17235;SDS011;8734;59.272;17.780;2022-10-31T07:35:45;68.13;;;13.17;;
17235;SDS011;8734;59.272;17.780;2022-10-31T07:38:14;69.23;;;12.63;;
17235;SDS011;8734;59.272;17.780;2022-10-31T07:40:43;68.30;;;12.87;;
17235;SDS011;8734;59.272;17.780;2022-10-31T07:43:16;74.73;;;14.40;;
17235;SDS011;8734;59.272;17.780;2022-10-31T07:45:50;83.07;;;13.57;;
17235;SDS011;8734;59.272;17.780;2022-10-31T07:48:19;73.23;;;14.57;;
17235;SDS011;8734;59.272;17.780;2022-10-31T07:50:48;73.80;;;13.93;;
17235;SDS011;8734;59.272;17.780;2022-10-31T07:53:16;73.73;;;13.50;;
17235;SDS011;8734;59.272;17.780;2022-10-31T07:55:44;68.83;;;13.40;;
17235;SDS011;8734;59.272;17.780;2022-10-31T07:58:13;65.13;;;14.83;;
17235;SDS011;8734;59.272;17.780;2022-10-31T08:00:43;67.27;;;13.80;;
17235;SDS011;8734;59.272;17.780;2022-10-31T08:03:14;62.50;;;14.73;;
17235;SDS011;8734;59.272;17.780;2022-10-31T08:05:44;72.43;;;15.00;;
17235;SDS011;8734;59.272;17.780;2022-10-31T08:08:13;58.30;;;14.80;;
17235;SDS011;8734;59.272;17.780;2022-10-31T08:10:42;68.23;;;15.70;;
17235;SDS011;8734;59.272;17.780;2022-10-31T08:13:12;55.70;;;14.17;;
17235;SDS011;8734;59.272;17.780;2022-10-31T08:15:41;43.53;;;13.57;;
17235;SDS011;8734;59.272;17.780;2022-10-31T08:18:10;57.83;;;13.70;;
17235;SDS011;8734;59.272;17.780;2022-10-31T08:20:42;54.73;;;13.40;;
17235;SDS011;8734;59.272;17.780;2022-10-31T08:23:11;53.17;;;12.87;;
17235;SDS011;8734;59.272;17.780;2022-10-31T08:25:40;51.37;;;13.33;;
17235;SDS011;8734;59.272;17.780;2022-10-31T08:28:10;42.23;;;14.00;;
17235;SDS011;8734;59.272;17.780;2022-10-31T08:30:38;50.97;;;14.87;;
17235;SDS011;8734;59.272;17.780;2022-10-31T08:33:09;36.90;;;13.43;;
17235;SDS011;8734;59.272;17.780;2022-10-31T08:35:39;47.87;;;14.07;;
17235;SDS011;8734;59.272;17.780;2022-10-31T08:38:10;48.10;;;12.93;;
17235;SDS011;8734;59.272;17.780;2022-10-31T08:40:39;46.13;;;13.07;;
17235;SDS011;8734;59.272;17.780;2022-10-31T08:43:10;40.80;;;12.03;;
17235;SDS011;8734;59.272;17.780;2022-10-31T08:45:39;41.43;;;12.50;;
17235;SDS011;8734;59.272;17.780;2022-10-31T08:48:11;51.77;;;13.37;;
17235;SDS011;8734;59.272;17.780;2022-10-31T08:50:42;38.90;;;12.80;;
17235;SDS011;8734;59.272;17.780;2022-10-31T08:53:11;42.50;;;12.90;;
17235;SDS011;8734;59.272;17.780;2022-10-31T08:55:41;37.67;;;12.67;;
17235;SDS011;8734;59.272;17.780;2022-10-31T08:58:12;40.13;;;14.00;;
17235;SDS011;8734;59.272;17.780;2022-10-31T09:00:42;49.80;;;13.27;;
17235;SDS011;8734;59.272;17.780;2022-10-31T09:03:12;39.43;;;13.83;;
17235;SDS011;8734;59.272;17.780;2022-10-31T09:05:43;54.57;;;14.33;;
17235;SDS011;8734;59.272;17.780;2022-10-31T09:08:12;49.30;;;14.77;;
17235;SDS011;8734;59.272;17.780;2022-10-31T09:10:42;40.07;;;14.57;;
17235;SDS011;8734;59.272;17.780;2022-10-31T09:13:12;53.57;;;14.57;;
17235;SDS011;8734;59.272;17.780;2022-10-31T09:15:42;45.33;;;14.70;;
17235;SDS011;8734;59.272;17.780;2022-10-31T09:18:12;38.40;;;13.60;;
17235;SDS011;8734;59.272;17.780;2022-10-31T09:20:42;38.10;;;13.73;;
17235;SDS011;8734;59.272;17.780;2022-10-31T09:23:14;37.77;;;13.27;;
17235;SDS011;8734;59.272;17.780;2022-10-31T09:25:43;41.03;;;14.13;;
17235;SDS011;8734;59.272;17.780;2022-10-31T09:28:16;36.80;;;13.87;;
17235;SDS011;8734;59.272;17.780;2022-10-31T09:30:46;39.20;;;13.67;;
17235;SDS011;8734;59.272;17.780;2022-10-31T09:33:16;38.07;;;13.30;;
17235;SDS011;8734;59.272;17.780;2022-10-31T09:35:46;37.60;;;12.60;;
17235;SDS011;8734;59.272;17.780;2022-10-31T09:38:16;34.57;;;13.30;;
17235;SDS011;8734;59.272;17.780;2022-10-31T09:40:46;31.70;;;12.17;;
17235;SDS011;8734;59.272;17.780;2022-10-31T09:43:19;35.17;;;13.17;;
17235;SDS011;8734;59.272;17.780;2022-10-31T09:45:56;42.80;;;14.47;;
17235;SDS011;8734;59.272;17.780;2022-10-31T09:48:42;45.07;;;14.30;;
17235;SDS011;8734;59.272;17.780;2022-10-31T09:51:19;35.97;;;14.00;;
17235;SDS011;8734;59.272;17.780;2022-10-31T09:53:52;42.00;;;13.97;;
17235;SDS011;8734;59.272;17.780;2022-10-31T09:56:28;38.27;;;13.93;;
17235;SDS011;8734;59.272;17.780;2022-10-31T09:58:59;48.57;;;14.60;;
17235;SDS011;8734;59.272;17.780;2022-10-31T10:01:30;37.53;;;13.90;;
17235;SDS011;8734;59.272;17.780;2022-10-31T10:04:11;42.80;;;14.63;;
17235;SDS011;8734;59.272;17.780;2022-10-31T10:06:56;33.57;;;13.93;;
17235;SDS011;8734;59.272;17.780;2022-10-31T10:09:26;34.63;;;14.30;;
17235;SDS011;8734;59.272;17.780;2022-10-31T10:12:04;32.70;;;13.10;;
17235;SDS011;8734;59.272;17.780;2022-10-31T10:14:45;36.10;;;12.77;;
17235;SDS011;8734;59.272;17.780;2022-10-31T10:17:27;38.40;;;14.00;;
17235;SDS011;8734;59.272;17.780;2022-10-31T10:20:15;42.93;;;14.60;;
17235;SDS011;8734;59.272;17.780;2022-10-31T10:22:52;36.67;;;12.77;;
17235;SDS011;8734;59.272;17.780;2022-10-31T10:25:28;38.03;;;14.23;;
17235;SDS011;8734;59.272;17.780;2022-10-31T10:28:06;33.57;;;12.63;;
17235;SDS011;8734;59.272;17.780;2022-10-31T10:30:43;37.63;;;12.40;;
17235;SDS011;8734;59.272;17.780;2022-10-31T10:33:15;35.27;;;11.97;;
17235;SDS011;8734;59.272;17.780;2022-10-31T10:35:50;32.90;;;12.53;;
17235;SDS011;8734;59.272;17.780;2022-10-31T10:38:23;30.27;;;11.60;;
17235;SDS011;8734;59.272;17.780;2022-10-31T10:40:59;34.37;;;12.27;;
17235;SDS011;8734;59.272;17.780;2022-10-31T10:43:33;28.07;;;10.10;;
17235;SDS011;8734;59.272;17.780;2022-10-31T10:46:13;26.17;;;11.23;;
17235;SDS011;8734;59.272;17.780;2022-10-31T10:49:06;26.27;;;11.50;;
17235;SDS011;8734;59.272;17.780;2022-10-31T10:51:43;32.73;;;11.27;;
17235;SDS011;8734;59.272;17.780;2022-10-31T10:54:38;27.23;;;11.00;;
17235;SDS011;8734;59.272;17.780;2022-10-31T10:57:20;23.83;;;10.80;;
17235;SDS011;8734;59.272;17.780;2022-10-31T10:59:54;22.93;;;9.50;;
17235;SDS011;8734;59.272;17.780;2022-10-31T11:02:24;21.67;;;9.20;;
17235;SDS011;8734;59.272;17.780;2022-10-31T11:04:55;20.47;;;10.20;;
17235;SDS011;8734;59.272;17.780;2022-10-31T11:07:36;21.00;;;9.50;;
17235;SDS011;8734;59.272;17.780;2022-10-31T11:10:11;19.33;;;9.00;;
17235;SDS011;8734;59.272;17.780;2022-10-31T11:12:45;18.40;;;9.50;;
17235;SDS011;8734;59.272;17.780;2022-10-31T11:15:26;20.07;;;8.50;;
17235;SDS011;8734;59.272;17.780;2022-10-31T11:17:56;20.23;;;8.03;;
17235;SDS011;8734;59.272;17.780;2022-10-31T11:20:27;26.07;;;8.63;;
17235;SDS011;8734;59.272;17.780;2022-10-31T11:23:03;20.33;;;8.43;;
17235;SDS011;8734;59.272;17.780;2022-10-31T11:25:49;18.33;;;8.20;;
17235;SDS011;8734;59.272;17.780;2022-10-31T11:28:19;14.37;;;8.07;;
17235;SDS011;8734;59.272;17.780;2022-10-31T11:30:48;20.70;;;8.40;;
17235;SDS011;8734;59.272;17.780;2022-10-31T11:33:19;16.00;;;7.77;;
17235;SDS011;8734;59.272;17.780;2022-10-31T11:35:52;16.23;;;6.90;;
17235;SDS011;8734;59.272;17.780;2022-10-31T11:38:24;19.17;;;7.30;;
17235;SDS011;8734;59.272;17.780;2022-10-31T11:41:05;13.90;;;6.77;;
17235;SDS011;8734;59.272;17.780;2022-10-31T11:43:38;16.63;;;6.70;;
17235;SDS011;8734;59.272;17.780;2022-10-31T11:46:15;14.70;;;6.83;;
17235;SDS011;8734;59.272;17.780;2022-10-31T11:48:48;13.93;;;6.20;;
17235;SDS011;8734;59.272;17.780;2022-10-31T11:51:21;13.67;;;6.27;;
17235;SDS011;8734;59.272;17.780;2022-10-31T11:53:52;15.07;;;6.33;;
17235;SDS011;8734;59.272;17.780;2022-10-31T11:56:36;10.73;;;5.97;;
17235;SDS011;8734;59.272;17.780;2022-10-31T11:59:12;13.50;;;5.67;;
17235;SDS011;8734;59.272;17.780;2022-10-31T12:01:48;15.63;;;5.53;;
17235;SDS011;8734;59.272;17.780;2022-10-31T12:04:18;15.90;;;5.37;;
17235;SDS011;8734;59.272;17.780;2022-10-31T12:06:49;13.33;;;5.70;;
17235;SDS011;8734;59.272;17.780;2022-10-31T12:09:20;14.30;;;5.60;;
17235;SDS011;8734;59.272;17.780;2022-10-31T12:11:56;14.30;;;5.20;;
17235;SDS011;8734;59.272;17.780;2022-10-31T12:14:45;15.37;;;5.37;;
17235;SDS011;8734;59.272;17.780;2022-10-31T12:17:23;14.70;;;4.93;;
17235;SDS011;8734;59.272;17.780;2022-10-31T12:19:59;12.73;;;5.00;;
17235;SDS011;8734;59.272;17.780;2022-10-31T12:22:36;15.23;;;4.93;;
17235;SDS011;8734;59.272;17.780;2022-10-31T12:25:12;11.83;;;4.90;;
17235;SDS011;8734;59.272;17.780;2022-10-31T12:27:54;11.90;;;4.40;;
17235;SDS011;8734;59.272;17.780;2022-10-31T12:30:39;15.97;;;4.80;;
17235;SDS011;8734;59.272;17.780;2022-10-31T12:33:23;13.07;;;4.50;;
17235;SDS011;8734;59.272;17.780;2022-10-31T12:36:05;13.33;;;4.40;;
17235;SDS011;8734;59.272;17.780;2022-10-31T12:38:46;11.90;;;4.43;;
17235;SDS011;8734;59.272;17.780;2022-10-31T12:41:44;16.00;;;4.43;;
17235;SDS011;8734;59.272;17.780;2022-10-31T12:44:22;12.83;;;4.13;;
17235;SDS011;8734;59.272;17.780;2022-10-31T12:47:13;16.03;;;4.53;;
17235;SDS011;8734;59.272;17.780;2022-10-31T12:50:10;10.87;;;5.03;;
17235;SDS011;8734;59.272;17.780;2022-10-31T12:52:48;10.27;;;3.97;;
17235;SDS011;8734;59.272;17.780;2022-10-31T12:55:30;15.17;;;5.43;;
17235;SDS011;8734;59.272;17.780;2022-10-31T12:58:07;9.53;;;4.37;;
17235;SDS011;8734;59.272;17.780;2022-10-31T13:00:42;11.13;;;4.20;;
17235;SDS011;8734;59.272;17.780;2022-10-31T13:03:23;10.37;;;4.33;;
17235;SDS011;8734;59.272;17.780;2022-10-31T13:05:57;12.30;;;4.67;;
17235;SDS011;8734;59.272;17.780;2022-10-31T13:08:33;9.70;;;3.77;;
17235;SDS011;8734;59.272;17.780;2022-10-31T13:11:08;14.17;;;4.17;;
17235;SDS011;8734;59.272;17.780;2022-10-31T13:13:40;11.07;;;4.13;;
17235;SDS011;8734;59.272;17.780;2022-10-31T13:16:13;11.53;;;4.67;;
17235;SDS011;8734;59.272;17.780;2022-10-31T13:18:45;10.07;;;4.47;;
17235;SDS011;8734;59.272;17.780;2022-10-31T13:21:19;11.53;;;4.17;;
17235;SDS011;8734;59.272;17.780;2022-10-31T13:23:50;9.07;;;3.97;;
17235;SDS011;8734;59.272;17.780;2022-10-31T13:26:21;15.63;;;4.20;;
17235;SDS011;8734;59.272;17.780;2022-10-31T13:28:57;13.43;;;4.47;;
17235;SDS011;8734;59.272;17.780;2022-10-31T13:31:34;12.33;;;4.40;;
17235;SDS011;8734;59.272;17.780;2022-10-31T13:34:04;11.17;;;4.20;;
17235;SDS011;8734;59.272;17.780;2022-10-31T13:36:44;15.00;;;4.53;;
17235;SDS011;8734;59.272;17.780;2022-10-31T13:39:21;9.97;;;3.97;;
17235;SDS011;8734;59.272;17.780;2022-10-31T13:41:57;16.43;;;4.80;;
17235;SDS011;8734;59.272;17.780;2022-10-31T13:44:32;12.30;;;3.97;;
17235;SDS011;8734;59.272;17.780;2022-10-31T13:47:20;10.00;;;4.03;;
17235;SDS011;8734;59.272;17.780;2022-10-31T13:49:50;6.40;;;3.87;;
17235;SDS011;8734;59.272;17.780;2022-10-31T13:52:22;12.20;;;3.83;;
17235;SDS011;8734;59.272;17.780;2022-10-31T13:54:53;12.07;;;3.80;;
17235;SDS011;8734;59.272;17.780;2022-10-31T13:57:29;12.87;;;4.17;;
17235;SDS011;8734;59.272;17.780;2022-10-31T14:00:01;12.10;;;4.20;;
17235;SDS011;8734;59.272;17.780;2022-10-31T14:02:34;10.67;;;3.30;;
17235;SDS011;8734;59.272;17.780;2022-10-31T14:05:05;10.97;;;4.27;;
17235;SDS011;8734;59.272;17.780;2022-10-31T14:07:46;11.03;;;5.50;;
17235;SDS011;8734;59.272;17.780;2022-10-31T14:10:20;12.47;;;3.90;;
17235;SDS011;8734;59.272;17.780;2022-10-31T14:12:52;11.23;;;4.17;;
17235;SDS011;8734;59.272;17.780;2022-10-31T14:15:24;11.00;;;4.30;;
17235;SDS011;8734;59.272;17.780;2022-10-31T14:17:55;14.00;;;4.20;;
17235;SDS011;8734;59.272;17.780;2022-10-31T14:20:34;8.23;;;4.13;;
17235;SDS011;8734;59.272;17.780;2022-10-31T14:23:13;10.03;;;4.07;;
17235;SDS011;8734;59.272;17.780;2022-10-31T14:26:14;12.43;;;4.53;;
17235;SDS011;8734;59.272;17.780;2022-10-31T14:28:58;11.57;;;3.67;;
17235;SDS011;8734;59.272;17.780;2022-10-31T14:31:32;16.13;;;4.50;;
17235;SDS011;8734;59.272;17.780;2022-10-31T14:34:15;17.10;;;4.37;;
17235;SDS011;8734;59.272;17.780;2022-10-31T14:39:54;8.83;;;4.07;;
17235;SDS011;8734;59.272;17.780;2022-10-31T14:42:36;11.03;;;4.20;;
17235;SDS011;8734;59.272;17.780;2022-10-31T14:45:15;9.70;;;4.27;;
17235;SDS011;8734;59.272;17.780;2022-10-31T14:47:59;17.80;;;4.03;;
17235;SDS011;8734;59.272;17.780;2022-10-31T14:50:41;7.73;;;4.30;;
17235;SDS011;8734;59.272;17.780;2022-10-31T14:53:18;9.57;;;4.03;;
17235;SDS011;8734;59.272;17.780;2022-10-31T14:55:51;9.70;;;4.17;;
17235;SDS011;8734;59.272;17.780;2022-10-31T14:58:22;10.93;;;4.23;;
17235;SDS011;8734;59.272;17.780;2022-10-31T15:00:56;10.07;;;4.33;;
17235;SDS011;8734;59.272;17.780;2022-10-31T15:03:27;11.33;;;4.30;;
17235;SDS011;8734;59.272;17.780;2022-10-31T15:06:00;11.30;;;4.23;;
17235;SDS011;8734;59.272;17.780;2022-10-31T15:08:33;13.23;;;4.43;;
17235;SDS011;8734;59.272;17.780;2022-10-31T15:11:11;10.87;;;4.03;;